sensor_id;sensor_type;location;lat;lon;timestamp;temperature;humidity
66026;SHT31;56312;55.976;37.136;2023-06-22T00:01:01;9.77;61.76
66026;SHT31;56312;55.976;37.136;2023-06-22T00:06:07;9.79;61.65
66026;SHT31;56312;55.976;37.136;2023-06-22T00:11:13;9.83;61.79
66026;SHT31;56312;55.976;37.136;2023-06-22T00:16:20;9.73;61.83
66026;SHT31;56312;55.976;37.136;2023-06-22T00:21:27;9.76;61.99
66026;SHT31;56312;55.976;37.136;2023-06-22T00:26:33;9.69;62.02
66026;SHT31;56312;55.976;37.136;2023-06-22T00:31:40;9.56;61.85
66026;SHT31;56312;55.976;37.136;2023-06-22T00:36:46;9.35;61.93
66026;SHT31;56312;55.976;37.136;2023-06-22T00:41:53;9.10;62.25
66026;SHT31;56312;55.976;37.136;2023-06-22T00:46:59;9.07;61.98
66026;SHT31;56312;55.976;37.136;2023-06-22T00:52:07;9.04;62.30
66026;SHT31;56312;55.976;37.136;2023-06-22T00:57:15;9.19;62.33
66026;SHT31;56312;55.976;37.136;2023-06-22T01:02:23;9.29;62.40
66026;SHT31;56312;55.976;37.136;2023-06-22T01:07:36;9.34;62.38
66026;SHT31;56312;55.976;37.136;2023-06-22T01:12:50;9.31;62.30
66026;SHT31;56312;55.976;37.136;2023-06-22T01:17:58;9.32;62.36
66026;SHT31;56312;55.976;37.136;2023-06-22T01:23:35;9.31;62.41
66026;SHT31;56312;55.976;37.136;2023-06-22T01:33:57;9.27;62.71
66026;SHT31;56312;55.976;37.136;2023-06-22T01:39:05;9.24;62.64
66026;SHT31;56312;55.976;37.136;2023-06-22T01:44:12;9.28;62.87
66026;SHT31;56312;55.976;37.136;2023-06-22T01:49:18;9.43;62.91
66026;SHT31;56312;55.976;37.136;2023-06-22T01:54:25;9.48;62.87
66026;SHT31;56312;55.976;37.136;2023-06-22T02:00:18;9.56;62.95
66026;SHT31;56312;55.976;37.136;2023-06-22T02:05:16;9.59;63.07
66026;SHT31;56312;55.976;37.136;2023-06-22T02:10:24;9.63;63.27
66026;SHT31;56312;55.976;37.136;2023-06-22T02:15:33;9.97;63.32
66026;SHT31;56312;55.976;37.136;2023-06-22T02:20:40;10.27;63.27
66026;SHT31;56312;55.976;37.136;2023-06-22T02:25:46;10.58;63.18
66026;SHT31;56312;55.976;37.136;2023-06-22T02:30:52;12.61;63.66
66026;SHT31;56312;55.976;37.136;2023-06-22T02:35:59;15.64;60.84
66026;SHT31;56312;55.976;37.136;2023-06-22T02:41:05;13.55;60.67
66026;SHT31;56312;55.976;37.136;2023-06-22T02:46:13;12.40;61.58
66026;SHT31;56312;55.976;37.136;2023-06-22T02:51:20;12.36;62.34
66026;SHT31;56312;55.976;37.136;2023-06-22T02:56:28;12.75;62.59
66026;SHT31;56312;55.976;37.136;2023-06-22T03:01:37;14.39;62.55
66026;SHT31;56312;55.976;37.136;2023-06-22T03:06:46;14.33;61.43
66026;SHT31;56312;55.976;37.136;2023-06-22T03:11:57;13.40;61.87
66026;SHT31;56312;55.976;37.136;2023-06-22T03:17:04;13.07;62.30
66026;SHT31;56312;55.976;37.136;2023-06-22T03:22:11;13.05;62.74
66026;SHT31;56312;55.976;37.136;2023-06-22T03:27:17;13.09;63.11
66026;SHT31;56312;55.976;37.136;2023-06-22T03:32:24;13.28;63.38
66026;SHT31;56312;55.976;37.136;2023-06-22T03:37:34;13.53;63.65
66026;SHT31;56312;55.976;37.136;2023-06-22T03:42:40;13.68;63.57
66026;SHT31;56312;55.976;37.136;2023-06-22T03:47:46;13.75;63.58
66026;SHT31;56312;55.976;37.136;2023-06-22T03:52:53;13.81;63.68
66026;SHT31;56312;55.976;37.136;2023-06-22T03:57:59;13.97;63.81
66026;SHT31;56312;55.976;37.136;2023-06-22T04:03:11;14.08;63.83
66026;SHT31;56312;55.976;37.136;2023-06-22T04:08:18;14.18;63.86
66026;SHT31;56312;55.976;37.136;2023-06-22T04:13:24;14.30;63.88
66026;SHT31;56312;55.976;37.136;2023-06-22T04:18:30;14.55;64.01
66026;SHT31;56312;55.976;37.136;2023-06-22T04:23:37;14.87;63.97
66026;SHT31;56312;55.976;37.136;2023-06-22T04:28:43;15.25;64.02
66026;SHT31;56312;55.976;37.136;2023-06-22T04:33:58;15.61;64.00
66026;SHT31;56312;55.976;37.136;2023-06-22T04:39:11;15.84;63.83
66026;SHT31;56312;55.976;37.136;2023-06-22T04:44:18;15.91;63.66
66026;SHT31;56312;55.976;37.136;2023-06-22T04:49:31;15.86;63.70
66026;SHT31;56312;55.976;37.136;2023-06-22T04:54:41;15.88;63.88
66026;SHT31;56312;55.976;37.136;2023-06-22T04:59:53;16.02;63.83
66026;SHT31;56312;55.976;37.136;2023-06-22T05:05:00;16.28;63.87
66026;SHT31;56312;55.976;37.136;2023-06-22T05:10:06;16.53;63.66
66026;SHT31;56312;55.976;37.136;2023-06-22T05:15:13;16.64;63.14
66026;SHT31;56312;55.976;37.136;2023-06-22T05:20:19;16.70;62.85
66026;SHT31;56312;55.976;37.136;2023-06-22T05:25:28;16.85;62.95
66026;SHT31;56312;55.976;37.136;2023-06-22T05:30:35;17.08;62.88
66026;SHT31;56312;55.976;37.136;2023-06-22T05:35:42;17.35;62.68
66026;SHT31;56312;55.976;37.136;2023-06-22T05:40:48;17.50;62.43
66026;SHT31;56312;55.976;37.136;2023-06-22T05:45:55;17.68;62.51
66026;SHT31;56312;55.976;37.136;2023-06-22T05:51:01;17.83;62.55
66026;SHT31;56312;55.976;37.136;2023-06-22T05:56:08;18.03;62.49
66026;SHT31;56312;55.976;37.136;2023-06-22T06:01:14;18.23;62.37
66026;SHT31;56312;55.976;37.136;2023-06-22T06:06:21;18.40;62.19
66026;SHT31;56312;55.976;37.136;2023-06-22T06:11:28;18.55;61.90
66026;SHT31;56312;55.976;37.136;2023-06-22T06:16:35;18.71;61.74
66026;SHT31;56312;55.976;37.136;2023-06-22T06:21:41;19.03;61.66
66026;SHT31;56312;55.976;37.136;2023-06-22T06:26:47;19.17;61.48
66026;SHT31;56312;55.976;37.136;2023-06-22T06:31:54;19.34;61.10
66026;SHT31;56312;55.976;37.136;2023-06-22T06:37:00;19.45;61.00
66026;SHT31;56312;55.976;37.136;2023-06-22T06:42:07;19.51;60.97
66026;SHT31;56312;55.976;37.136;2023-06-22T06:47:13;19.69;60.77
66026;SHT31;56312;55.976;37.136;2023-06-22T06:52:19;19.59;60.59
66026;SHT31;56312;55.976;37.136;2023-06-22T06:57:26;19.57;60.56
66026;SHT31;56312;55.976;37.136;2023-06-22T07:02:36;19.62;60.58
66026;SHT31;56312;55.976;37.136;2023-06-22T07:07:42;19.55;60.50
66026;SHT31;56312;55.976;37.136;2023-06-22T07:12:48;19.48;60.45
66026;SHT31;56312;55.976;37.136;2023-06-22T07:17:55;19.78;60.81
66026;SHT31;56312;55.976;37.136;2023-06-22T07:23:01;20.41;60.71
66026;SHT31;56312;55.976;37.136;2023-06-22T07:28:07;20.91;60.74
66026;SHT31;56312;55.976;37.136;2023-06-22T07:33:14;21.19;60.21
66026;SHT31;56312;55.976;37.136;2023-06-22T07:38:20;21.09;59.77
66026;SHT31;56312;55.976;37.136;2023-06-22T07:43:26;21.10;59.98
66026;SHT31;56312;55.976;37.136;2023-06-22T07:48:33;21.47;60.11
66026;SHT31;56312;55.976;37.136;2023-06-22T07:53:43;21.73;59.96
66026;SHT31;56312;55.976;37.136;2023-06-22T07:58:50;21.82;59.72
66026;SHT31;56312;55.976;37.136;2023-06-22T08:03:56;22.18;59.57
66026;SHT31;56312;55.976;37.136;2023-06-22T08:09:03;22.38;59.51
66026;SHT31;56312;55.976;37.136;2023-06-22T08:14:10;22.47;59.47
66026;SHT31;56312;55.976;37.136;2023-06-22T08:19:16;22.59;59.31
66026;SHT31;56312;55.976;37.136;2023-06-22T08:24:23;22.86;59.30
66026;SHT31;56312;55.976;37.136;2023-06-22T08:29:29;23.05;59.20
66026;SHT31;56312;55.976;37.136;2023-06-22T08:34:36;23.18;58.97
66026;SHT31;56312;55.976;37.136;2023-06-22T08:39:42;23.03;58.63
66026;SHT31;56312;55.976;37.136;2023-06-22T08:44:49;22.63;58.72
66026;SHT31;56312;55.976;37.136;2023-06-22T08:49:55;22.90;58.94
66026;SHT31;56312;55.976;37.136;2023-06-22T08:55:02;22.74;58.61
66026;SHT31;56312;55.976;37.136;2023-06-22T09:00:09;22.63;58.46
66026;SHT31;56312;55.976;37.136;2023-06-22T09:05:26;23.10;59.14
66026;SHT31;56312;55.976;37.136;2023-06-22T09:10:32;23.50;58.73
66026;SHT31;56312;55.976;37.136;2023-06-22T09:15:38;23.70;58.42
66026;SHT31;56312;55.976;37.136;2023-06-22T09:20:45;23.87;58.18
66026;SHT31;56312;55.976;37.136;2023-06-22T09:25:51;23.89;57.64
66026;SHT31;56312;55.976;37.136;2023-06-22T09:30:58;23.93;57.35
66026;SHT31;56312;55.976;37.136;2023-06-22T09:36:06;24.06;57.36
66026;SHT31;56312;55.976;37.136;2023-06-22T09:41:15;24.28;57.19
66026;SHT31;56312;55.976;37.136;2023-06-22T09:46:22;24.35;56.87
66026;SHT31;56312;55.976;37.136;2023-06-22T09:51:31;24.41;56.56
66026;SHT31;56312;55.976;37.136;2023-06-22T09:56:37;24.42;56.21
66026;SHT31;56312;55.976;37.136;2023-06-22T10:01:44;24.54;56.32
66026;SHT31;56312;55.976;37.136;2023-06-22T10:06:50;24.73;56.43
66026;SHT31;56312;55.976;37.136;2023-06-22T10:11:56;24.83;56.32
66026;SHT31;56312;55.976;37.136;2023-06-22T10:17:03;24.87;56.31
66026;SHT31;56312;55.976;37.136;2023-06-22T10:22:09;25.03;56.19
66026;SHT31;56312;55.976;37.136;2023-06-22T10:27:16;25.00;56.05
66026;SHT31;56312;55.976;37.136;2023-06-22T10:32:23;24.96;55.91
66026;SHT31;56312;55.976;37.136;2023-06-22T10:37:29;25.10;55.78
66026;SHT31;56312;55.976;37.136;2023-06-22T10:42:36;25.11;55.48
66026;SHT31;56312;55.976;37.136;2023-06-22T10:47:42;25.23;55.48
66026;SHT31;56312;55.976;37.136;2023-06-22T10:52:49;25.24;55.29
66026;SHT31;56312;55.976;37.136;2023-06-22T10:57:55;25.47;55.02
66026;SHT31;56312;55.976;37.136;2023-06-22T11:03:02;25.57;54.69
66026;SHT31;56312;55.976;37.136;2023-06-22T11:08:08;25.47;54.41
66026;SHT31;56312;55.976;37.136;2023-06-22T11:13:14;25.51;54.31
66026;SHT31;56312;55.976;37.136;2023-06-22T11:18:21;25.55;54.05
66026;SHT31;56312;55.976;37.136;2023-06-22T11:23:29;25.55;54.06
66026;SHT31;56312;55.976;37.136;2023-06-22T11:28:36;25.57;53.88
66026;SHT31;56312;55.976;37.136;2023-06-22T11:33:42;25.76;54.01
66026;SHT31;56312;55.976;37.136;2023-06-22T11:38:50;25.71;53.68
66026;SHT31;56312;55.976;37.136;2023-06-22T11:43:57;25.76;53.77
66026;SHT31;56312;55.976;37.136;2023-06-22T11:49:03;25.72;53.72
66026;SHT31;56312;55.976;37.136;2023-06-22T11:54:10;25.81;53.50
66026;SHT31;56312;55.976;37.136;2023-06-22T11:59:16;25.86;53.15
66026;SHT31;56312;55.976;37.136;2023-06-22T12:15:46;26.07;53.23
66026;SHT31;56312;55.976;37.136;2023-06-22T12:20:52;26.13;53.03
66026;SHT31;56312;55.976;37.136;2023-06-22T12:25:59;26.09;52.54
66026;SHT31;56312;55.976;37.136;2023-06-22T12:31:07;26.06;52.31
66026;SHT31;56312;55.976;37.136;2023-06-22T12:36:13;26.05;52.28
66026;SHT31;56312;55.976;37.136;2023-06-22T12:41:19;26.10;52.26
66026;SHT31;56312;55.976;37.136;2023-06-22T12:46:26;26.14;52.27
66026;SHT31;56312;55.976;37.136;2023-06-22T12:51:32;26.13;52.10
66026;SHT31;56312;55.976;37.136;2023-06-22T12:56:39;26.12;52.01
66026;SHT31;56312;55.976;37.136;2023-06-22T13:01:46;25.88;51.78
66026;SHT31;56312;55.976;37.136;2023-06-22T13:06:53;25.39;51.78
66026;SHT31;56312;55.976;37.136;2023-06-22T13:11:59;25.11;51.96
66026;SHT31;56312;55.976;37.136;2023-06-22T13:17:06;25.37;52.16
66026;SHT31;56312;55.976;37.136;2023-06-22T13:22:32;25.65;51.81
66026;SHT31;56312;55.976;37.136;2023-06-22T13:27:40;25.72;51.69
66026;SHT31;56312;55.976;37.136;2023-06-22T13:32:46;25.72;51.57
66026;SHT31;56312;55.976;37.136;2023-06-22T13:37:52;25.69;51.49
66026;SHT31;56312;55.976;37.136;2023-06-22T13:42:59;25.76;51.27
66026;SHT31;56312;55.976;37.136;2023-06-22T13:48:06;25.79;51.32
66026;SHT31;56312;55.976;37.136;2023-06-22T13:53:13;25.78;51.38
66026;SHT31;56312;55.976;37.136;2023-06-22T13:58:19;25.54;51.21
66026;SHT31;56312;55.976;37.136;2023-06-22T14:03:28;25.44;51.12
66026;SHT31;56312;55.976;37.136;2023-06-22T14:08:37;25.49;51.14
66026;SHT31;56312;55.976;37.136;2023-06-22T14:13:43;25.59;51.30
66026;SHT31;56312;55.976;37.136;2023-06-22T14:18:50;25.49;51.24
66026;SHT31;56312;55.976;37.136;2023-06-22T14:23:56;25.33;51.12
66026;SHT31;56312;55.976;37.136;2023-06-22T14:29:03;25.11;51.13
66026;SHT31;56312;55.976;37.136;2023-06-22T14:34:10;24.94;50.97
66026;SHT31;56312;55.976;37.136;2023-06-22T14:39:16;24.77;51.08
66026;SHT31;56312;55.976;37.136;2023-06-22T14:44:22;24.62;51.22
66026;SHT31;56312;55.976;37.136;2023-06-22T14:49:28;24.48;51.42
66026;SHT31;56312;55.976;37.136;2023-06-22T14:54:35;24.32;51.73
66026;SHT31;56312;55.976;37.136;2023-06-22T14:59:41;24.28;51.90
66026;SHT31;56312;55.976;37.136;2023-06-22T15:04:48;24.32;51.99
66026;SHT31;56312;55.976;37.136;2023-06-22T15:09:54;24.29;52.18
66026;SHT31;56312;55.976;37.136;2023-06-22T15:15:01;24.28;52.27
66026;SHT31;56312;55.976;37.136;2023-06-22T15:20:08;24.27;52.50
66026;SHT31;56312;55.976;37.136;2023-06-22T15:25:14;24.27;52.59
66026;SHT31;56312;55.976;37.136;2023-06-22T15:30:21;24.21;52.47
66026;SHT31;56312;55.976;37.136;2023-06-22T15:35:27;24.13;52.73
66026;SHT31;56312;55.976;37.136;2023-06-22T15:40:33;24.00;52.74
66026;SHT31;56312;55.976;37.136;2023-06-22T15:45:40;23.92;52.85
66026;SHT31;56312;55.976;37.136;2023-06-22T15:50:46;23.80;53.25
66026;SHT31;56312;55.976;37.136;2023-06-22T15:55:53;23.69;53.32
66026;SHT31;56312;55.976;37.136;2023-06-22T16:01:00;23.58;53.56
66026;SHT31;56312;55.976;37.136;2023-06-22T16:06:07;23.48;53.64
66026;SHT31;56312;55.976;37.136;2023-06-22T16:11:14;23.37;53.95
66026;SHT31;56312;55.976;37.136;2023-06-22T16:16:21;23.21;54.24
66026;SHT31;56312;55.976;37.136;2023-06-22T16:21:27;23.10;54.30
66026;SHT31;56312;55.976;37.136;2023-06-22T16:26:39;22.97;54.32
66026;SHT31;56312;55.976;37.136;2023-06-22T16:31:46;22.88;54.44
66026;SHT31;56312;55.976;37.136;2023-06-22T16:36:52;22.77;54.75
66026;SHT31;56312;55.976;37.136;2023-06-22T16:41:58;22.70;55.37
66026;SHT31;56312;55.976;37.136;2023-06-22T16:47:05;22.57;55.88
66026;SHT31;56312;55.976;37.136;2023-06-22T16:52:12;22.46;56.40
66026;SHT31;56312;55.976;37.136;2023-06-22T16:57:19;22.29;56.91
66026;SHT31;56312;55.976;37.136;2023-06-22T17:02:28;22.12;57.35
66026;SHT31;56312;55.976;37.136;2023-06-22T17:07:36;21.95;57.76
66026;SHT31;56312;55.976;37.136;2023-06-22T17:12:44;21.75;57.73
66026;SHT31;56312;55.976;37.136;2023-06-22T17:17:52;21.60;57.84
66026;SHT31;56312;55.976;37.136;2023-06-22T17:23:00;21.47;57.80
66026;SHT31;56312;55.976;37.136;2023-06-22T17:28:06;21.36;57.75
66026;SHT31;56312;55.976;37.136;2023-06-22T17:33:15;21.25;57.88
66026;SHT31;56312;55.976;37.136;2023-06-22T17:38:25;21.13;58.00
66026;SHT31;56312;55.976;37.136;2023-06-22T17:43:32;20.96;58.24
66026;SHT31;56312;55.976;37.136;2023-06-22T17:48:43;20.82;58.45
66026;SHT31;56312;55.976;37.136;2023-06-22T17:53:50;20.60;58.63
66026;SHT31;56312;55.976;37.136;2023-06-22T17:58:56;20.43;58.76
66026;SHT31;56312;55.976;37.136;2023-06-22T18:04:14;20.41;58.54
66026;SHT31;56312;55.976;37.136;2023-06-22T18:09:20;20.44;58.34
66026;SHT31;56312;55.976;37.136;2023-06-22T18:14:27;20.43;58.23
66026;SHT31;56312;55.976;37.136;2023-06-22T18:19:37;20.34;58.15
66026;SHT31;56312;55.976;37.136;2023-06-22T18:24:44;20.27;58.10
66026;SHT31;56312;55.976;37.136;2023-06-22T18:29:55;20.14;58.07
66026;SHT31;56312;55.976;37.136;2023-06-22T18:35:02;20.03;58.12
66026;SHT31;56312;55.976;37.136;2023-06-22T18:40:10;19.93;58.08
66026;SHT31;56312;55.976;37.136;2023-06-22T18:45:24;19.86;58.05
66026;SHT31;56312;55.976;37.136;2023-06-22T18:50:44;19.79;58.11
66026;SHT31;56312;55.976;37.136;2023-06-22T18:55:51;19.71;58.12
66026;SHT31;56312;55.976;37.136;2023-06-22T19:01:18;19.68;58.15
66026;SHT31;56312;55.976;37.136;2023-06-22T19:12:17;19.53;58.10
66026;SHT31;56312;55.976;37.136;2023-06-22T19:17:23;19.50;58.18
66026;SHT31;56312;55.976;37.136;2023-06-22T19:22:54;19.41;58.21
66026;SHT31;56312;55.976;37.136;2023-06-22T19:28:01;19.38;58.17
66026;SHT31;56312;55.976;37.136;2023-06-22T19:33:11;19.37;58.21
66026;SHT31;56312;55.976;37.136;2023-06-22T19:38:18;19.31;58.12
66026;SHT31;56312;55.976;37.136;2023-06-22T19:43:31;19.26;58.13
66026;SHT31;56312;55.976;37.136;2023-06-22T19:48:39;19.18;58.05
66026;SHT31;56312;55.976;37.136;2023-06-22T19:53:46;19.13;58.05
66026;SHT31;56312;55.976;37.136;2023-06-22T19:58:54;19.14;57.97
66026;SHT31;56312;55.976;37.136;2023-06-22T20:04:02;19.09;57.99
66026;SHT31;56312;55.976;37.136;2023-06-22T20:09:13;18.99;58.01
66026;SHT31;56312;55.976;37.136;2023-06-22T20:14:19;18.92;58.02
66026;SHT31;56312;55.976;37.136;2023-06-22T20:19:36;18.92;58.00
66026;SHT31;56312;55.976;37.136;2023-06-22T20:24:43;18.88;58.00
66026;SHT31;56312;55.976;37.136;2023-06-22T20:29:51;18.82;58.06
66026;SHT31;56312;55.976;37.136;2023-06-22T20:34:57;18.82;58.06
66026;SHT31;56312;55.976;37.136;2023-06-22T20:40:04;18.83;58.01
66026;SHT31;56312;55.976;37.136;2023-06-22T20:45:11;18.83;58.00
66026;SHT31;56312;55.976;37.136;2023-06-22T20:50:18;18.82;58.12
66026;SHT31;56312;55.976;37.136;2023-06-22T20:55:25;18.68;58.32
66026;SHT31;56312;55.976;37.136;2023-06-22T21:00:32;18.59;58.58
66026;SHT31;56312;55.976;37.136;2023-06-22T21:05:41;18.45;58.83
66026;SHT31;56312;55.976;37.136;2023-06-22T21:10:47;18.33;58.95
66026;SHT31;56312;55.976;37.136;2023-06-22T21:15:53;18.38;58.89
66026;SHT31;56312;55.976;37.136;2023-06-22T21:21:00;18.37;58.88
66026;SHT31;56312;55.976;37.136;2023-06-22T21:26:07;18.35;58.91
66026;SHT31;56312;55.976;37.136;2023-06-22T21:31:13;18.31;58.97
66026;SHT31;56312;55.976;37.136;2023-06-22T21:36:19;18.28;58.97
66026;SHT31;56312;55.976;37.136;2023-06-22T21:41:26;18.23;59.02
66026;SHT31;56312;55.976;37.136;2023-06-22T21:46:32;18.20;59.20
66026;SHT31;56312;55.976;37.136;2023-06-22T21:51:39;18.14;59.30
66026;SHT31;56312;55.976;37.136;2023-06-22T21:56:45;18.01;59.55
66026;SHT31;56312;55.976;37.136;2023-06-22T22:01:52;17.85;59.88
66026;SHT31;56312;55.976;37.136;2023-06-22T22:07:00;17.76;60.08
66026;SHT31;56312;55.976;37.136;2023-06-22T22:12:07;17.62;60.38
66026;SHT31;56312;55.976;37.136;2023-06-22T22:17:13;17.56;60.57
66026;SHT31;56312;55.976;37.136;2023-06-22T22:22:20;17.59;60.70
66026;SHT31;56312;55.976;37.136;2023-06-22T22:27:26;17.68;60.72
66026;SHT31;56312;55.976;37.136;2023-06-22T22:32:32;17.73;60.54
66026;SHT31;56312;55.976;37.136;2023-06-22T22:37:41;17.77;60.44
66026;SHT31;56312;55.976;37.136;2023-06-22T22:42:48;17.82;60.40
66026;SHT31;56312;55.976;37.136;2023-06-22T22:47:54;17.83;60.37
66026;SHT31;56312;55.976;37.136;2023-06-22T22:53:01;17.83;60.43
66026;SHT31;56312;55.976;37.136;2023-06-22T22:58:08;17.87;60.41
66026;SHT31;56312;55.976;37.136;2023-06-22T23:03:15;17.87;60.45
66026;SHT31;56312;55.976;37.136;2023-06-22T23:08:23;17.85;60.61
66026;SHT31;56312;55.976;37.136;2023-06-22T23:13:29;17.76;60.92
66026;SHT31;56312;55.976;37.136;2023-06-22T23:18:36;17.73;61.14
66026;SHT31;56312;55.976;37.136;2023-06-22T23:23:42;17.62;61.34
66026;SHT31;56312;55.976;37.136;2023-06-22T23:28:49;17.58;61.25
66026;SHT31;56312;55.976;37.136;2023-06-22T23:33:55;17.53;61.32
66026;SHT31;56312;55.976;37.136;2023-06-22T23:39:01;17.46;61.56
66026;SHT31;56312;55.976;37.136;2023-06-22T23:44:08;17.39;61.93
66026;SHT31;56312;55.976;37.136;2023-06-22T23:49:14;17.27;62.36
66026;SHT31;56312;55.976;37.136;2023-06-22T23:54:21;17.18;62.79
66026;SHT31;56312;55.976;37.136;2023-06-22T23:59:27;16.93;63.29
